< < Back
Terminal Aerodrome Forecast


Current Version              Previous Versions:   1  2  3  4  5  6  7  8  9  

Terminal Aerodrome Forecast

083
FTUS42 KCHS 041722
TAFCHS
TAF
KCHS 041722Z 0418/0518 13011KT P6SM SCT060
     FM050100 VRB03KT P6SM SKC
     FM051300 09009KT P6SM FEW040=

Latest METAR

139
SAUS80 KWBC 042300 RRC
MTRCHS
METAR KCHS 042256Z 13010KT 10SM FEW045 23/12 A3029 RMK AO2 SLP258
T02330117


USA.gov is the U.S. government's official web portal to all federal, state and local government web resources and services.